sensor_id;sensor_type;location;lat;lon;timestamp;P1;durP1;ratioP1;P2;durP2;ratioP2
16137;SDS011;8174;43.550;5.206;2023-02-18T00:00:08;154.30;;;73.47;;
16137;SDS011;8174;43.550;5.206;2023-02-18T00:02:37;145.47;;;72.50;;
16137;SDS011;8174;43.550;5.206;2023-02-18T00:05:05;150.10;;;72.13;;
16137;SDS011;8174;43.550;5.206;2023-02-18T00:07:33;149.13;;;71.47;;
16137;SDS011;8174;43.550;5.206;2023-02-18T00:10:00;139.43;;;69.77;;
16137;SDS011;8174;43.550;5.206;2023-02-18T00:12:28;146.97;;;70.13;;
16137;SDS011;8174;43.550;5.206;2023-02-18T00:14:57;157.40;;;72.47;;
16137;SDS011;8174;43.550;5.206;2023-02-18T00:17:25;146.73;;;70.97;;
16137;SDS011;8174;43.550;5.206;2023-02-18T00:19:52;141.00;;;70.90;;
16137;SDS011;8174;43.550;5.206;2023-02-18T00:22:19;137.33;;;69.07;;
16137;SDS011;8174;43.550;5.206;2023-02-18T00:24:47;144.97;;;70.80;;
16137;SDS011;8174;43.550;5.206;2023-02-18T00:27:14;140.33;;;66.67;;
16137;SDS011;8174;43.550;5.206;2023-02-18T00:29:42;137.30;;;66.73;;
16137;SDS011;8174;43.550;5.206;2023-02-18T00:32:11;139.70;;;65.30;;
16137;SDS011;8174;43.550;5.206;2023-02-18T00:34:38;127.83;;;63.67;;
16137;SDS011;8174;43.550;5.206;2023-02-18T00:37:05;136.10;;;66.67;;
16137;SDS011;8174;43.550;5.206;2023-02-18T00:39:33;130.57;;;64.00;;
16137;SDS011;8174;43.550;5.206;2023-02-18T00:42:20;134.17;;;66.13;;
16137;SDS011;8174;43.550;5.206;2023-02-18T00:44:47;126.53;;;62.40;;
16137;SDS011;8174;43.550;5.206;2023-02-18T00:47:16;130.60;;;65.47;;
16137;SDS011;8174;43.550;5.206;2023-02-18T00:49:44;124.33;;;61.10;;
16137;SDS011;8174;43.550;5.206;2023-02-18T00:52:11;124.83;;;62.13;;
16137;SDS011;8174;43.550;5.206;2023-02-18T00:54:39;119.70;;;60.37;;
16137;SDS011;8174;43.550;5.206;2023-02-18T00:57:06;119.70;;;61.30;;
16137;SDS011;8174;43.550;5.206;2023-02-18T00:59:33;127.87;;;62.37;;
16137;SDS011;8174;43.550;5.206;2023-02-18T01:02:00;128.10;;;61.70;;
16137;SDS011;8174;43.550;5.206;2023-02-18T01:04:29;121.73;;;59.63;;
16137;SDS011;8174;43.550;5.206;2023-02-18T01:06:56;135.80;;;63.00;;
16137;SDS011;8174;43.550;5.206;2023-02-18T01:09:24;124.70;;;61.37;;
16137;SDS011;8174;43.550;5.206;2023-02-18T01:11:51;130.33;;;60.57;;
16137;SDS011;8174;43.550;5.206;2023-02-18T01:14:18;126.67;;;59.60;;
16137;SDS011;8174;43.550;5.206;2023-02-18T01:16:46;120.67;;;59.13;;
16137;SDS011;8174;43.550;5.206;2023-02-18T01:19:13;115.73;;;59.90;;
16137;SDS011;8174;43.550;5.206;2023-02-18T01:21:42;115.77;;;58.97;;
16137;SDS011;8174;43.550;5.206;2023-02-18T01:24:09;120.43;;;60.37;;
16137;SDS011;8174;43.550;5.206;2023-02-18T01:26:37;123.37;;;58.63;;
16137;SDS011;8174;43.550;5.206;2023-02-18T01:29:04;116.10;;;57.63;;
16137;SDS011;8174;43.550;5.206;2023-02-18T01:31:32;122.20;;;58.23;;
16137;SDS011;8174;43.550;5.206;2023-02-18T01:33:59;114.60;;;57.40;;
16137;SDS011;8174;43.550;5.206;2023-02-18T01:36:29;116.90;;;56.30;;
16137;SDS011;8174;43.550;5.206;2023-02-18T01:38:58;116.23;;;57.27;;
16137;SDS011;8174;43.550;5.206;2023-02-18T01:41:25;117.03;;;55.23;;
16137;SDS011;8174;43.550;5.206;2023-02-18T01:46:35;109.43;;;54.07;;
16137;SDS011;8174;43.550;5.206;2023-02-18T01:49:02;110.17;;;54.43;;
16137;SDS011;8174;43.550;5.206;2023-02-18T01:51:30;111.70;;;55.37;;
16137;SDS011;8174;43.550;5.206;2023-02-18T01:54:01;108.73;;;55.07;;
16137;SDS011;8174;43.550;5.206;2023-02-18T01:56:29;114.20;;;54.73;;
16137;SDS011;8174;43.550;5.206;2023-02-18T01:58:58;108.93;;;55.40;;
16137;SDS011;8174;43.550;5.206;2023-02-18T02:01:27;106.13;;;54.27;;
16137;SDS011;8174;43.550;5.206;2023-02-18T02:03:54;117.73;;;56.63;;
16137;SDS011;8174;43.550;5.206;2023-02-18T02:06:22;112.57;;;56.10;;
16137;SDS011;8174;43.550;5.206;2023-02-18T02:08:50;118.50;;;56.77;;
16137;SDS011;8174;43.550;5.206;2023-02-18T02:11:25;116.10;;;58.20;;
16137;SDS011;8174;43.550;5.206;2023-02-18T02:14:06;115.87;;;58.73;;
16137;SDS011;8174;43.550;5.206;2023-02-18T02:16:38;120.83;;;61.93;;
16137;SDS011;8174;43.550;5.206;2023-02-18T02:19:11;114.10;;;58.53;;
16137;SDS011;8174;43.550;5.206;2023-02-18T02:21:49;110.37;;;55.70;;
16137;SDS011;8174;43.550;5.206;2023-02-18T02:24:23;114.20;;;55.67;;
16137;SDS011;8174;43.550;5.206;2023-02-18T02:27:02;104.07;;;52.10;;
16137;SDS011;8174;43.550;5.206;2023-02-18T02:32:22;112.30;;;54.67;;
16137;SDS011;8174;43.550;5.206;2023-02-18T02:34:53;117.43;;;55.27;;
16137;SDS011;8174;43.550;5.206;2023-02-18T02:37:22;110.43;;;55.67;;
16137;SDS011;8174;43.550;5.206;2023-02-18T02:39:55;112.87;;;54.30;;
16137;SDS011;8174;43.550;5.206;2023-02-18T02:42:25;105.50;;;52.20;;
16137;SDS011;8174;43.550;5.206;2023-02-18T02:44:54;101.20;;;53.17;;
16137;SDS011;8174;43.550;5.206;2023-02-18T02:47:26;107.67;;;53.13;;
16137;SDS011;8174;43.550;5.206;2023-02-18T02:49:56;104.80;;;54.37;;
16137;SDS011;8174;43.550;5.206;2023-02-18T02:52:27;111.10;;;54.17;;
16137;SDS011;8174;43.550;5.206;2023-02-18T02:54:56;105.00;;;52.60;;
16137;SDS011;8174;43.550;5.206;2023-02-18T03:00:18;99.80;;;52.30;;
16137;SDS011;8174;43.550;5.206;2023-02-18T03:05:38;103.33;;;52.60;;
16137;SDS011;8174;43.550;5.206;2023-02-18T03:08:21;96.40;;;51.10;;
16137;SDS011;8174;43.550;5.206;2023-02-18T03:10:52;101.93;;;53.33;;
16137;SDS011;8174;43.550;5.206;2023-02-18T03:13:30;103.97;;;51.13;;
16137;SDS011;8174;43.550;5.206;2023-02-18T03:16:00;106.07;;;52.73;;
16137;SDS011;8174;43.550;5.206;2023-02-18T03:18:33;109.60;;;51.53;;
16137;SDS011;8174;43.550;5.206;2023-02-18T03:21:03;102.40;;;51.13;;
16137;SDS011;8174;43.550;5.206;2023-02-18T03:23:33;97.77;;;49.93;;
16137;SDS011;8174;43.550;5.206;2023-02-18T03:26:04;102.03;;;49.63;;
16137;SDS011;8174;43.550;5.206;2023-02-18T03:28:32;104.97;;;52.27;;
16137;SDS011;8174;43.550;5.206;2023-02-18T03:31:00;105.47;;;53.20;;
16137;SDS011;8174;43.550;5.206;2023-02-18T03:33:30;100.80;;;50.60;;
16137;SDS011;8174;43.550;5.206;2023-02-18T03:35:59;105.70;;;51.03;;
16137;SDS011;8174;43.550;5.206;2023-02-18T03:38:28;92.63;;;48.67;;
16137;SDS011;8174;43.550;5.206;2023-02-18T03:40:59;108.90;;;51.83;;
16137;SDS011;8174;43.550;5.206;2023-02-18T03:43:27;101.57;;;50.47;;
16137;SDS011;8174;43.550;5.206;2023-02-18T03:45:55;105.10;;;51.27;;
16137;SDS011;8174;43.550;5.206;2023-02-18T03:48:22;106.90;;;52.03;;
16137;SDS011;8174;43.550;5.206;2023-02-18T03:50:50;106.60;;;51.50;;
16137;SDS011;8174;43.550;5.206;2023-02-18T03:53:17;97.73;;;50.00;;
16137;SDS011;8174;43.550;5.206;2023-02-18T03:55:46;102.83;;;50.17;;
16137;SDS011;8174;43.550;5.206;2023-02-18T03:58:13;97.97;;;49.53;;
16137;SDS011;8174;43.550;5.206;2023-02-18T04:00:40;109.77;;;51.43;;
16137;SDS011;8174;43.550;5.206;2023-02-18T04:03:08;117.60;;;50.97;;
16137;SDS011;8174;43.550;5.206;2023-02-18T04:05:35;103.70;;;48.93;;
16137;SDS011;8174;43.550;5.206;2023-02-18T04:08:02;105.90;;;50.50;;
16137;SDS011;8174;43.550;5.206;2023-02-18T04:10:30;102.93;;;50.50;;
16137;SDS011;8174;43.550;5.206;2023-02-18T04:12:59;97.40;;;49.77;;
16137;SDS011;8174;43.550;5.206;2023-02-18T04:15:26;95.37;;;49.53;;
16137;SDS011;8174;43.550;5.206;2023-02-18T04:17:53;96.03;;;48.67;;
16137;SDS011;8174;43.550;5.206;2023-02-18T04:20:21;97.57;;;47.57;;
16137;SDS011;8174;43.550;5.206;2023-02-18T04:22:48;94.40;;;48.50;;
16137;SDS011;8174;43.550;5.206;2023-02-18T04:25:15;88.23;;;46.47;;
16137;SDS011;8174;43.550;5.206;2023-02-18T04:27:43;85.87;;;46.63;;
16137;SDS011;8174;43.550;5.206;2023-02-18T04:30:12;86.67;;;45.03;;
16137;SDS011;8174;43.550;5.206;2023-02-18T04:32:39;95.60;;;46.80;;
16137;SDS011;8174;43.550;5.206;2023-02-18T04:35:07;89.33;;;45.33;;
16137;SDS011;8174;43.550;5.206;2023-02-18T04:37:34;94.80;;;46.33;;
16137;SDS011;8174;43.550;5.206;2023-02-18T04:40:02;93.70;;;46.03;;
16137;SDS011;8174;43.550;5.206;2023-02-18T04:42:29;85.90;;;45.57;;
16137;SDS011;8174;43.550;5.206;2023-02-18T04:44:57;85.60;;;46.23;;
16137;SDS011;8174;43.550;5.206;2023-02-18T04:47:25;86.73;;;46.87;;
16137;SDS011;8174;43.550;5.206;2023-02-18T04:49:53;85.97;;;46.10;;
16137;SDS011;8174;43.550;5.206;2023-02-18T04:52:20;94.43;;;47.83;;
16137;SDS011;8174;43.550;5.206;2023-02-18T04:54:47;87.33;;;46.80;;
16137;SDS011;8174;43.550;5.206;2023-02-18T04:57:15;96.27;;;46.37;;
16137;SDS011;8174;43.550;5.206;2023-02-18T04:59:42;86.90;;;46.33;;
16137;SDS011;8174;43.550;5.206;2023-02-18T05:02:09;96.30;;;46.60;;
16137;SDS011;8174;43.550;5.206;2023-02-18T05:04:38;93.23;;;47.70;;
16137;SDS011;8174;43.550;5.206;2023-02-18T05:07:06;97.83;;;48.30;;
16137;SDS011;8174;43.550;5.206;2023-02-18T05:09:33;96.87;;;48.33;;
16137;SDS011;8174;43.550;5.206;2023-02-18T05:12:00;106.10;;;50.43;;
16137;SDS011;8174;43.550;5.206;2023-02-18T05:14:28;103.60;;;50.07;;
16137;SDS011;8174;43.550;5.206;2023-02-18T05:16:55;107.33;;;49.83;;
16137;SDS011;8174;43.550;5.206;2023-02-18T05:19:22;105.27;;;50.83;;
16137;SDS011;8174;43.550;5.206;2023-02-18T05:21:51;101.20;;;50.13;;
16137;SDS011;8174;43.550;5.206;2023-02-18T05:24:18;96.40;;;48.03;;
16137;SDS011;8174;43.550;5.206;2023-02-18T05:26:46;103.43;;;49.30;;
16137;SDS011;8174;43.550;5.206;2023-02-18T05:29:13;102.53;;;49.27;;
16137;SDS011;8174;43.550;5.206;2023-02-18T05:31:41;105.37;;;51.20;;
16137;SDS011;8174;43.550;5.206;2023-02-18T05:34:08;104.17;;;49.67;;
16137;SDS011;8174;43.550;5.206;2023-02-18T05:36:35;97.43;;;48.63;;
16137;SDS011;8174;43.550;5.206;2023-02-18T05:39:04;101.23;;;49.67;;
16137;SDS011;8174;43.550;5.206;2023-02-18T05:41:31;99.97;;;48.10;;
16137;SDS011;8174;43.550;5.206;2023-02-18T05:43:59;97.37;;;49.47;;
16137;SDS011;8174;43.550;5.206;2023-02-18T05:46:43;99.57;;;49.53;;
16137;SDS011;8174;43.550;5.206;2023-02-18T05:49:11;99.33;;;48.97;;
16137;SDS011;8174;43.550;5.206;2023-02-18T05:51:38;93.17;;;46.07;;
16137;SDS011;8174;43.550;5.206;2023-02-18T05:54:07;99.07;;;47.20;;
16137;SDS011;8174;43.550;5.206;2023-02-18T05:56:34;110.10;;;49.93;;
16137;SDS011;8174;43.550;5.206;2023-02-18T05:59:02;102.97;;;49.93;;
16137;SDS011;8174;43.550;5.206;2023-02-18T06:01:29;93.03;;;47.57;;
16137;SDS011;8174;43.550;5.206;2023-02-18T06:03:57;94.83;;;47.43;;
16137;SDS011;8174;43.550;5.206;2023-02-18T06:06:24;83.93;;;44.53;;
16137;SDS011;8174;43.550;5.206;2023-02-18T06:08:51;94.13;;;45.63;;
16137;SDS011;8174;43.550;5.206;2023-02-18T06:11:20;97.23;;;46.33;;
16137;SDS011;8174;43.550;5.206;2023-02-18T06:13:47;90.83;;;45.80;;
16137;SDS011;8174;43.550;5.206;2023-02-18T06:16:15;99.20;;;47.93;;
16137;SDS011;8174;43.550;5.206;2023-02-18T06:18:42;102.00;;;47.27;;
16137;SDS011;8174;43.550;5.206;2023-02-18T06:21:09;95.23;;;47.57;;
16137;SDS011;8174;43.550;5.206;2023-02-18T06:23:37;102.20;;;48.97;;
16137;SDS011;8174;43.550;5.206;2023-02-18T06:26:04;109.27;;;51.47;;
16137;SDS011;8174;43.550;5.206;2023-02-18T06:28:33;104.97;;;50.87;;
16137;SDS011;8174;43.550;5.206;2023-02-18T06:31:00;107.73;;;51.03;;
16137;SDS011;8174;43.550;5.206;2023-02-18T06:33:28;108.83;;;52.57;;
16137;SDS011;8174;43.550;5.206;2023-02-18T06:35:56;117.10;;;53.70;;
16137;SDS011;8174;43.550;5.206;2023-02-18T06:38:24;115.00;;;53.47;;
16137;SDS011;8174;43.550;5.206;2023-02-18T06:40:51;104.90;;;51.70;;
16137;SDS011;8174;43.550;5.206;2023-02-18T06:43:19;108.07;;;52.63;;
16137;SDS011;8174;43.550;5.206;2023-02-18T06:45:48;106.47;;;52.70;;
16137;SDS011;8174;43.550;5.206;2023-02-18T06:48:15;106.97;;;52.03;;
16137;SDS011;8174;43.550;5.206;2023-02-18T06:50:43;107.77;;;54.03;;
16137;SDS011;8174;43.550;5.206;2023-02-18T06:53:10;102.77;;;49.60;;
16137;SDS011;8174;43.550;5.206;2023-02-18T06:55:38;106.70;;;50.20;;
16137;SDS011;8174;43.550;5.206;2023-02-18T06:58:06;99.57;;;49.90;;
16137;SDS011;8174;43.550;5.206;2023-02-18T07:00:34;101.70;;;50.37;;
16137;SDS011;8174;43.550;5.206;2023-02-18T07:03:02;95.40;;;48.80;;
16137;SDS011;8174;43.550;5.206;2023-02-18T07:05:30;100.07;;;48.23;;
16137;SDS011;8174;43.550;5.206;2023-02-18T07:07:57;95.47;;;48.47;;
16137;SDS011;8174;43.550;5.206;2023-02-18T07:10:24;91.20;;;47.67;;
16137;SDS011;8174;43.550;5.206;2023-02-18T07:12:52;91.43;;;46.33;;
16137;SDS011;8174;43.550;5.206;2023-02-18T07:15:19;83.90;;;45.33;;
16137;SDS011;8174;43.550;5.206;2023-02-18T07:17:48;87.00;;;46.77;;
16137;SDS011;8174;43.550;5.206;2023-02-18T07:20:17;87.37;;;45.00;;
16137;SDS011;8174;43.550;5.206;2023-02-18T07:22:47;86.67;;;46.30;;
16137;SDS011;8174;43.550;5.206;2023-02-18T07:25:14;91.13;;;48.17;;
16137;SDS011;8174;43.550;5.206;2023-02-18T07:27:41;86.00;;;46.03;;
16137;SDS011;8174;43.550;5.206;2023-02-18T07:30:09;85.93;;;46.77;;
16137;SDS011;8174;43.550;5.206;2023-02-18T07:32:37;83.07;;;45.30;;
16137;SDS011;8174;43.550;5.206;2023-02-18T07:35:04;83.73;;;45.57;;
16137;SDS011;8174;43.550;5.206;2023-02-18T07:37:33;81.10;;;42.67;;
16137;SDS011;8174;43.550;5.206;2023-02-18T07:40:00;73.13;;;41.13;;
16137;SDS011;8174;43.550;5.206;2023-02-18T07:42:28;72.00;;;42.43;;
16137;SDS011;8174;43.550;5.206;2023-02-18T07:44:55;75.57;;;41.93;;
16137;SDS011;8174;43.550;5.206;2023-02-18T07:47:22;70.40;;;42.53;;
16137;SDS011;8174;43.550;5.206;2023-02-18T07:49:50;70.37;;;39.90;;
16137;SDS011;8174;43.550;5.206;2023-02-18T07:52:17;67.77;;;38.23;;
16137;SDS011;8174;43.550;5.206;2023-02-18T07:54:46;63.50;;;38.40;;
16137;SDS011;8174;43.550;5.206;2023-02-18T07:57:13;62.07;;;37.33;;
16137;SDS011;8174;43.550;5.206;2023-02-18T07:59:41;61.23;;;37.43;;
16137;SDS011;8174;43.550;5.206;2023-02-18T08:02:09;67.47;;;37.60;;
16137;SDS011;8174;43.550;5.206;2023-02-18T08:04:41;63.70;;;36.67;;
16137;SDS011;8174;43.550;5.206;2023-02-18T08:07:10;59.33;;;37.50;;
16137;SDS011;8174;43.550;5.206;2023-02-18T08:09:38;59.73;;;36.47;;
16137;SDS011;8174;43.550;5.206;2023-02-18T08:12:07;57.43;;;36.20;;
16137;SDS011;8174;43.550;5.206;2023-02-18T08:14:34;63.00;;;36.77;;
16137;SDS011;8174;43.550;5.206;2023-02-18T08:17:01;54.33;;;33.90;;
16137;SDS011;8174;43.550;5.206;2023-02-18T08:19:30;57.97;;;36.23;;
16137;SDS011;8174;43.550;5.206;2023-02-18T08:21:59;53.20;;;33.37;;
16137;SDS011;8174;43.550;5.206;2023-02-18T08:24:27;53.77;;;32.40;;
16137;SDS011;8174;43.550;5.206;2023-02-18T08:26:54;52.97;;;32.63;;
16137;SDS011;8174;43.550;5.206;2023-02-18T08:29:23;49.97;;;31.90;;
16137;SDS011;8174;43.550;5.206;2023-02-18T08:31:50;52.90;;;32.13;;
16137;SDS011;8174;43.550;5.206;2023-02-18T08:34:19;50.70;;;29.60;;
16137;SDS011;8174;43.550;5.206;2023-02-18T08:36:46;47.17;;;30.10;;
16137;SDS011;8174;43.550;5.206;2023-02-18T08:39:13;46.80;;;30.60;;
16137;SDS011;8174;43.550;5.206;2023-02-18T08:41:41;44.23;;;30.07;;
16137;SDS011;8174;43.550;5.206;2023-02-18T08:44:08;45.10;;;28.90;;
16137;SDS011;8174;43.550;5.206;2023-02-18T08:46:36;48.10;;;28.57;;
16137;SDS011;8174;43.550;5.206;2023-02-18T08:49:04;41.90;;;27.73;;
16137;SDS011;8174;43.550;5.206;2023-02-18T08:51:31;43.83;;;27.73;;
16137;SDS011;8174;43.550;5.206;2023-02-18T08:53:59;41.63;;;27.33;;
16137;SDS011;8174;43.550;5.206;2023-02-18T08:56:26;44.47;;;28.57;;
16137;SDS011;8174;43.550;5.206;2023-02-18T08:58:54;41.67;;;26.73;;
16137;SDS011;8174;43.550;5.206;2023-02-18T09:01:21;42.20;;;26.60;;
16137;SDS011;8174;43.550;5.206;2023-02-18T09:03:50;40.13;;;25.60;;
16137;SDS011;8174;43.550;5.206;2023-02-18T09:06:17;40.03;;;25.43;;
16137;SDS011;8174;43.550;5.206;2023-02-18T09:08:45;41.03;;;26.60;;
16137;SDS011;8174;43.550;5.206;2023-02-18T09:11:12;33.80;;;24.37;;
16137;SDS011;8174;43.550;5.206;2023-02-18T09:13:39;42.70;;;26.80;;
16137;SDS011;8174;43.550;5.206;2023-02-18T09:16:09;39.77;;;25.10;;
16137;SDS011;8174;43.550;5.206;2023-02-18T09:18:37;37.93;;;26.50;;
16137;SDS011;8174;43.550;5.206;2023-02-18T09:21:06;41.97;;;26.03;;
16137;SDS011;8174;43.550;5.206;2023-02-18T09:23:34;35.33;;;24.17;;
16137;SDS011;8174;43.550;5.206;2023-02-18T09:26:03;38.90;;;26.47;;
16137;SDS011;8174;43.550;5.206;2023-02-18T09:28:31;41.00;;;26.20;;
16137;SDS011;8174;43.550;5.206;2023-02-18T09:31:02;39.87;;;25.83;;
16137;SDS011;8174;43.550;5.206;2023-02-18T09:33:29;41.03;;;26.07;;
16137;SDS011;8174;43.550;5.206;2023-02-18T09:35:56;44.20;;;26.63;;
16137;SDS011;8174;43.550;5.206;2023-02-18T09:38:25;39.83;;;27.03;;
16137;SDS011;8174;43.550;5.206;2023-02-18T09:40:53;41.53;;;28.63;;
16137;SDS011;8174;43.550;5.206;2023-02-18T09:43:25;48.37;;;31.33;;
16137;SDS011;8174;43.550;5.206;2023-02-18T09:45:53;49.77;;;32.50;;
16137;SDS011;8174;43.550;5.206;2023-02-18T09:48:24;44.27;;;30.23;;
16137;SDS011;8174;43.550;5.206;2023-02-18T09:50:52;44.00;;;29.63;;
16137;SDS011;8174;43.550;5.206;2023-02-18T09:53:20;41.73;;;28.97;;
16137;SDS011;8174;43.550;5.206;2023-02-18T09:55:49;57.00;;;35.27;;
16137;SDS011;8174;43.550;5.206;2023-02-18T09:58:18;50.67;;;34.73;;
16137;SDS011;8174;43.550;5.206;2023-02-18T10:00:47;59.57;;;37.17;;
16137;SDS011;8174;43.550;5.206;2023-02-18T10:03:16;55.90;;;35.80;;
16137;SDS011;8174;43.550;5.206;2023-02-18T10:05:45;57.60;;;37.77;;
16137;SDS011;8174;43.550;5.206;2023-02-18T10:08:16;57.03;;;38.07;;
16137;SDS011;8174;43.550;5.206;2023-02-18T10:10:46;58.13;;;38.70;;
16137;SDS011;8174;43.550;5.206;2023-02-18T10:13:16;60.27;;;37.63;;
16137;SDS011;8174;43.550;5.206;2023-02-18T10:15:44;59.93;;;35.87;;
16137;SDS011;8174;43.550;5.206;2023-02-18T10:18:24;56.27;;;36.27;;
16137;SDS011;8174;43.550;5.206;2023-02-18T10:20:55;51.33;;;34.23;;
16137;SDS011;8174;43.550;5.206;2023-02-18T10:23:23;52.07;;;35.03;;
16137;SDS011;8174;43.550;5.206;2023-02-18T10:25:50;49.83;;;35.87;;
16137;SDS011;8174;43.550;5.206;2023-02-18T10:28:20;55.80;;;35.90;;
16137;SDS011;8174;43.550;5.206;2023-02-18T10:30:50;53.90;;;35.13;;
16137;SDS011;8174;43.550;5.206;2023-02-18T10:33:23;54.40;;;36.53;;
16137;SDS011;8174;43.550;5.206;2023-02-18T10:35:53;53.57;;;34.80;;
16137;SDS011;8174;43.550;5.206;2023-02-18T10:38:24;51.03;;;32.80;;
16137;SDS011;8174;43.550;5.206;2023-02-18T10:41:00;50.53;;;33.03;;
16137;SDS011;8174;43.550;5.206;2023-02-18T10:43:33;45.87;;;31.80;;
16137;SDS011;8174;43.550;5.206;2023-02-18T10:46:06;51.03;;;33.30;;
16137;SDS011;8174;43.550;5.206;2023-02-18T10:48:41;44.67;;;30.63;;
16137;SDS011;8174;43.550;5.206;2023-02-18T10:51:14;43.00;;;30.10;;
16137;SDS011;8174;43.550;5.206;2023-02-18T10:53:41;50.43;;;31.17;;
16137;SDS011;8174;43.550;5.206;2023-02-18T10:56:13;51.10;;;31.97;;
16137;SDS011;8174;43.550;5.206;2023-02-18T10:59:01;44.43;;;29.47;;
16137;SDS011;8174;43.550;5.206;2023-02-18T11:01:31;46.17;;;30.70;;
16137;SDS011;8174;43.550;5.206;2023-02-18T11:04:11;50.33;;;30.63;;
16137;SDS011;8174;43.550;5.206;2023-02-18T11:06:39;42.87;;;29.43;;
16137;SDS011;8174;43.550;5.206;2023-02-18T11:09:12;43.87;;;30.03;;
16137;SDS011;8174;43.550;5.206;2023-02-18T11:11:47;44.47;;;30.03;;
16137;SDS011;8174;43.550;5.206;2023-02-18T11:14:20;43.60;;;29.27;;
16137;SDS011;8174;43.550;5.206;2023-02-18T11:17:06;41.90;;;29.53;;
16137;SDS011;8174;43.550;5.206;2023-02-18T11:19:36;44.03;;;27.33;;
16137;SDS011;8174;43.550;5.206;2023-02-18T11:22:11;39.33;;;27.40;;
16137;SDS011;8174;43.550;5.206;2023-02-18T11:24:41;37.47;;;25.90;;
16137;SDS011;8174;43.550;5.206;2023-02-18T11:27:12;44.33;;;27.13;;
16137;SDS011;8174;43.550;5.206;2023-02-18T11:29:45;39.57;;;26.10;;
16137;SDS011;8174;43.550;5.206;2023-02-18T11:32:14;36.57;;;24.73;;
16137;SDS011;8174;43.550;5.206;2023-02-18T11:34:42;38.47;;;26.73;;
16137;SDS011;8174;43.550;5.206;2023-02-18T11:37:10;39.83;;;25.00;;
16137;SDS011;8174;43.550;5.206;2023-02-18T11:39:40;44.47;;;28.77;;
16137;SDS011;8174;43.550;5.206;2023-02-18T11:42:10;40.63;;;28.97;;
16137;SDS011;8174;43.550;5.206;2023-02-18T11:44:40;43.77;;;28.57;;
16137;SDS011;8174;43.550;5.206;2023-02-18T11:47:20;40.67;;;28.53;;
16137;SDS011;8174;43.550;5.206;2023-02-18T11:49:57;40.40;;;26.53;;
16137;SDS011;8174;43.550;5.206;2023-02-18T11:52:26;39.83;;;26.13;;
16137;SDS011;8174;43.550;5.206;2023-02-18T11:55:00;34.70;;;24.03;;
16137;SDS011;8174;43.550;5.206;2023-02-18T11:57:28;35.63;;;25.10;;
16137;SDS011;8174;43.550;5.206;2023-02-18T11:59:56;34.63;;;23.50;;
16137;SDS011;8174;43.550;5.206;2023-02-18T12:02:29;32.20;;;23.47;;
16137;SDS011;8174;43.550;5.206;2023-02-18T12:04:58;35.77;;;24.23;;
16137;SDS011;8174;43.550;5.206;2023-02-18T12:07:28;36.33;;;23.33;;
16137;SDS011;8174;43.550;5.206;2023-02-18T12:09:58;35.77;;;23.73;;
16137;SDS011;8174;43.550;5.206;2023-02-18T12:12:26;36.17;;;23.00;;
16137;SDS011;8174;43.550;5.206;2023-02-18T12:14:54;32.50;;;22.87;;
16137;SDS011;8174;43.550;5.206;2023-02-18T12:17:33;31.57;;;22.27;;
16137;SDS011;8174;43.550;5.206;2023-02-18T12:20:17;29.93;;;21.50;;
16137;SDS011;8174;43.550;5.206;2023-02-18T12:22:47;31.20;;;20.87;;
16137;SDS011;8174;43.550;5.206;2023-02-18T12:25:21;29.80;;;20.07;;
16137;SDS011;8174;43.550;5.206;2023-02-18T12:27:53;34.37;;;21.97;;
16137;SDS011;8174;43.550;5.206;2023-02-18T12:30:28;29.60;;;20.57;;
16137;SDS011;8174;43.550;5.206;2023-02-18T12:33:01;31.73;;;21.93;;
16137;SDS011;8174;43.550;5.206;2023-02-18T12:35:33;30.47;;;20.70;;
16137;SDS011;8174;43.550;5.206;2023-02-18T12:38:07;36.30;;;23.43;;
16137;SDS011;8174;43.550;5.206;2023-02-18T12:40:39;36.07;;;24.27;;
16137;SDS011;8174;43.550;5.206;2023-02-18T12:43:14;36.60;;;24.23;;
16137;SDS011;8174;43.550;5.206;2023-02-18T12:45:51;36.90;;;22.90;;
16137;SDS011;8174;43.550;5.206;2023-02-18T12:48:28;29.30;;;21.53;;
16137;SDS011;8174;43.550;5.206;2023-02-18T12:51:05;33.27;;;21.60;;
16137;SDS011;8174;43.550;5.206;2023-02-18T12:53:51;31.20;;;22.43;;
16137;SDS011;8174;43.550;5.206;2023-02-18T12:56:31;30.83;;;21.42;;
16137;SDS011;8174;43.550;5.206;2023-02-18T12:59:02;35.87;;;23.63;;
16137;SDS011;8174;43.550;5.206;2023-02-18T13:01:37;32.63;;;22.70;;
16137;SDS011;8174;43.550;5.206;2023-02-18T13:04:14;31.57;;;22.80;;
16137;SDS011;8174;43.550;5.206;2023-02-18T13:06:52;37.77;;;25.57;;
16137;SDS011;8174;43.550;5.206;2023-02-18T13:09:27;34.50;;;23.70;;
16137;SDS011;8174;43.550;5.206;2023-02-18T13:12:00;30.50;;;20.90;;
16137;SDS011;8174;43.550;5.206;2023-02-18T13:14:30;30.42;;;21.23;;
16137;SDS011;8174;43.550;5.206;2023-02-18T13:16:59;31.48;;;20.80;;
16137;SDS011;8174;43.550;5.206;2023-02-18T13:19:30;32.40;;;20.95;;
16137;SDS011;8174;43.550;5.206;2023-02-18T13:21:59;30.00;;;21.02;;
16137;SDS011;8174;43.550;5.206;2023-02-18T13:24:29;29.45;;;20.27;;
16137;SDS011;8174;43.550;5.206;2023-02-18T13:27:01;28.77;;;19.40;;
16137;SDS011;8174;43.550;5.206;2023-02-18T13:29:33;28.13;;;19.45;;
16137;SDS011;8174;43.550;5.206;2023-02-18T13:32:05;30.27;;;19.77;;
16137;SDS011;8174;43.550;5.206;2023-02-18T13:34:38;29.42;;;19.40;;
16137;SDS011;8174;43.550;5.206;2023-02-18T13:37:10;29.70;;;18.95;;
16137;SDS011;8174;43.550;5.206;2023-02-18T13:39:45;26.42;;;17.73;;
16137;SDS011;8174;43.550;5.206;2023-02-18T13:45:24;25.40;;;18.42;;
16137;SDS011;8174;43.550;5.206;2023-02-18T13:47:51;25.77;;;17.85;;
16137;SDS011;8174;43.550;5.206;2023-02-18T13:50:25;26.30;;;17.52;;
16137;SDS011;8174;43.550;5.206;2023-02-18T13:52:57;25.33;;;16.92;;
16137;SDS011;8174;43.550;5.206;2023-02-18T13:55:25;28.17;;;18.20;;
16137;SDS011;8174;43.550;5.206;2023-02-18T13:57:53;22.00;;;16.02;;
16137;SDS011;8174;43.550;5.206;2023-02-18T14:00:22;21.00;;;15.27;;
16137;SDS011;8174;43.550;5.206;2023-02-18T14:02:56;20.38;;;14.85;;
16137;SDS011;8174;43.550;5.206;2023-02-18T14:05:33;19.27;;;13.98;;
16137;SDS011;8174;43.550;5.206;2023-02-18T14:08:05;20.52;;;14.98;;
16137;SDS011;8174;43.550;5.206;2023-02-18T14:10:35;19.25;;;14.20;;
16137;SDS011;8174;43.550;5.206;2023-02-18T14:15:49;22.10;;;14.60;;
16137;SDS011;8174;43.550;5.206;2023-02-18T14:18:23;21.50;;;14.68;;
16137;SDS011;8174;43.550;5.206;2023-02-18T14:20:57;19.30;;;13.20;;
16137;SDS011;8174;43.550;5.206;2023-02-18T14:26:24;9.52;;;7.60;;
16137;SDS011;8174;43.550;5.206;2023-02-18T14:28:54;10.88;;;7.75;;
16137;SDS011;8174;43.550;5.206;2023-02-18T14:36:51;11.02;;;8.05;;
16137;SDS011;8174;43.550;5.206;2023-02-18T14:39:25;11.95;;;8.57;;
16137;SDS011;8174;43.550;5.206;2023-02-18T14:41:57;11.52;;;8.13;;
16137;SDS011;8174;43.550;5.206;2023-02-18T14:44:32;11.18;;;7.65;;
16137;SDS011;8174;43.550;5.206;2023-02-18T14:47:13;11.63;;;8.13;;
16137;SDS011;8174;43.550;5.206;2023-02-18T14:49:43;11.02;;;7.70;;
16137;SDS011;8174;43.550;5.206;2023-02-18T14:52:17;10.48;;;6.97;;
16137;SDS011;8174;43.550;5.206;2023-02-18T14:54:46;10.50;;;6.75;;
16137;SDS011;8174;43.550;5.206;2023-02-18T14:57:14;9.95;;;7.60;;
16137;SDS011;8174;43.550;5.206;2023-02-18T14:59:43;16.45;;;10.57;;
16137;SDS011;8174;43.550;5.206;2023-02-18T15:02:14;15.32;;;9.88;;
16137;SDS011;8174;43.550;5.206;2023-02-18T15:04:43;12.98;;;8.57;;
16137;SDS011;8174;43.550;5.206;2023-02-18T15:07:12;14.48;;;8.57;;
16137;SDS011;8174;43.550;5.206;2023-02-18T15:09:47;16.58;;;7.95;;